Time;durP1;ratioP1;P1;durP2;ratioP2;P2;SDS_P1;SDS_P2;PMS_P1;PMS_P2;Temp;Humidity;BMP_temperature;BMP_pressure;BME280_temperature;BME280_humidity;BME280_pressure;Samples;Min_cycle;Max_cycle;Signal;HPM_P1;HPM_P2
2022/04/12 00:02:20;;;;;;;10.35;5.53;;;;;;;8.50;56.91;101133.38;5980126;24;20397;-82
2022/04/12 00:08:21;;;;;;;7.80;5.13;;;;;;;7.98;57.52;101051.00;5980198;23;20454;-80
2022/04/12 00:10:56;;;;;;;10.23;6.05;;;;;;;7.53;57.99;100976.94;5973173;24;20017;-82
2022/04/12 00:20:18;;;;;;;8.37;5.77;;;;;;;7.87;57.64;101023.25;6113555;23;20024;-81
2022/04/12 00:22:53;;;;;;;8.82;5.97;;;;;;;7.12;58.05;100887.25;6125767;23;20250;-83
2022/04/12 00:25:48;;;;;;;10.20;6.13;;;;;;;8.38;57.83;101090.25;6126192;23;19998;-82
2022/04/12 00:28:15;;;;;;;11.02;6.50;;;;;;;7.55;58.07;100969.97;6125994;23;20037;-82
2022/04/12 00:30:41;;;;;;;8.65;5.63;;;;;;;7.98;58.02;101033.00;6125518;23;20014;-81
2022/04/12 00:33:13;;;;;;;8.65;5.30;;;;;;;8.26;57.80;101077.06;6125952;23;20340;-85
2022/04/12 00:35:41;;;;;;;7.88;5.30;;;;;;;8.28;58.00;101082.94;6125999;23;20038;-84
2022/04/12 00:38:17;;;;;;;9.38;5.90;;;;;;;8.08;57.92;101062.50;6125630;23;20006;-81
2022/04/12 00:40:55;;;;;;;8.88;5.80;;;;;;;8.12;58.39;101078.63;6125789;23;20006;-81
2022/04/12 00:43:25;;;;;;;8.82;5.88;;;;;;;7.88;58.96;101039.50;6125619;23;20033;-81
2022/04/12 00:45:51;;;;;;;8.27;5.70;;;;;;;7.84;58.59;101041.38;6125735;23;20085;-80
2022/04/12 00:48:16;;;;;;;9.23;5.97;;;;;;;7.89;58.63;101056.59;6125514;23;20005;-81
2022/04/12 00:50:43;;;;;;;7.55;5.20;;;;;;;7.94;58.72;101060.59;6125937;23;20420;-80
2022/04/12 00:53:28;;;;;;;9.23;5.80;;;;;;;7.27;59.49;100973.84;6126013;23;20385;-81
2022/04/12 00:56:24;;;;;;;8.95;5.60;;;;;;;8.02;58.61;101103.94;6125620;23;20089;-81
2022/04/12 00:59:02;;;;;;;11.32;5.60;;;;;;;7.55;59.56;101039.34;6126090;23;20010;-79
2022/04/12 01:01:37;;;;;;;8.32;5.63;;;;;;;7.87;59.67;101084.97;6099606;23;20002;-81
2022/04/12 01:04:21;;;;;;;8.20;5.40;;;;;;;6.69;59.23;100903.84;6125862;23;20049;-81
2022/04/12 01:10:45;;;;;;;9.50;5.28;;;;;;;7.81;59.78;101104.97;6125699;23;20049;-82
2022/04/12 01:13:48;;;;;;;8.43;5.25;;;;;;;7.71;60.25;101094.28;6125491;23;20014;-81
2022/04/12 01:16:19;;;;;;;9.93;5.70;;;;;;;6.52;60.27;100905.41;6125294;23;20010;-80
2022/04/12 01:19:16;;;;;;;8.65;5.55;;;;;;;7.64;60.33;101093.72;6125566;23;20006;-81
2022/04/12 01:21:56;;;;;;;8.23;5.40;;;;;;;7.57;61.50;101089.81;6125427;23;20010;-79
2022/04/12 01:27:43;;;;;;;11.05;6.07;;;;;;;6.54;61.47;100947.22;6127316;23;20029;-82
2022/04/12 01:30:09;;;;;;;9.82;5.38;;;;;;;7.38;61.61;101097.50;6126896;23;20010;-81
2022/04/12 01:32:35;;;;;;;7.82;5.15;;;;;;;7.01;62.56;101034.13;6127285;23;20142;-80
2022/04/12 01:38:43;;;;;;;11.95;5.57;;;;;;;5.97;61.91;100876.22;6126765;23;20340;-81
2022/04/12 01:41:27;;;;;;;7.80;5.40;;;;;;;7.19;62.74;101084.66;6127542;23;20009;-83
2022/04/12 01:44:29;;;;;;;9.55;5.50;;;;;;;7.13;62.77;101081.53;6127185;23;20006;-81
2022/04/12 01:46:54;;;;;;;8.57;5.55;;;;;;;5.87;63.26;100875.75;6126924;23;20040;-81
2022/04/12 02:00:15;;;;;;;9.40;5.80;;;;;;;7.01;63.36;101072.63;6127143;23;20068;-81
2022/04/12 02:02:44;;;;;;;7.63;4.85;;;;;;;5.76;64.18;100865.97;6126985;23;20002;-81
2022/04/12 02:05:20;;;;;;;7.43;5.20;;;;;;;5.95;63.77;100901.09;6126791;23;20057;-83
2022/04/12 02:08:25;;;;;;;9.63;5.82;;;;;;;6.93;63.81;101051.59;6126558;23;20012;-81
2022/04/12 02:11:45;;;;;;;9.35;5.47;;;;;;;6.13;63.49;100932.81;6129830;22;20001;-81
2022/04/12 02:25:34;;;;;;;8.50;5.70;;;;;;;5.77;65.50;100912.91;6156266;23;20450;-87
2022/04/12 02:28:00;;;;;;;9.05;6.07;;;;;;;6.25;66.13;100996.41;6156216;23;20014;-82
2022/04/12 02:30:25;;;;;;;9.73;5.72;;;;;;;6.61;66.22;101069.22;6130061;23;20085;-80
2022/04/12 02:33:08;;;;;;;9.18;6.15;;;;;;;6.59;65.28;101080.47;6156254;23;20061;-81
2022/04/12 02:35:41;;;;;;;11.30;6.35;;;;;;;6.52;66.91;101063.66;6156111;23;20049;-80
2022/04/12 02:38:15;;;;;;;8.82;5.85;;;;;;;6.48;66.71;101062.94;6156292;23;20001;-80
2022/04/12 02:40:48;;;;;;;9.88;6.00;;;;;;;5.98;66.89;100975.28;6156278;23;20158;-81
2022/04/12 02:43:19;;;;;;;10.27;6.10;;;;;;;6.46;66.28;101057.03;6156345;23;20025;-80
2022/04/12 02:45:45;;;;;;;11.55;6.53;;;;;;;6.26;67.12;101042.47;6156001;23;20002;-80
2022/04/12 02:48:11;;;;;;;11.60;6.13;;;;;;;6.42;67.02;101060.66;6155867;23;20093;-80
2022/04/12 02:50:37;;;;;;;9.10;6.13;;;;;;;6.25;67.49;101038.25;6155809;23;20377;-80
2022/04/12 02:53:02;;;;;;;9.18;6.30;;;;;;;6.30;67.82;101048.34;6156296;23;20129;-81
2022/04/12 02:55:30;;;;;;;8.80;6.00;;;;;;;6.27;68.36;101044.16;6155752;23;20012;-80
2022/04/12 02:57:55;;;;;;;9.50;6.10;;;;;;;6.11;67.73;101011.53;6130034;23;20017;-82
2022/04/12 03:00:20;;;;;;;11.50;6.18;;;;;;;6.19;67.93;101030.81;6155919;23;20002;-81
2022/04/12 03:02:46;;;;;;;10.32;6.95;;;;;;;5.88;68.65;100981.66;6155608;23;20012;-81
2022/04/12 03:05:12;;;;;;;9.52;6.13;;;;;;;5.93;67.56;100985.75;6155643;23;20005;-82
2022/04/12 03:07:37;;;;;;;9.98;6.45;;;;;;;6.03;67.85;100999.03;6155824;23;20009;-88
2022/04/12 03:10:03;;;;;;;8.77;6.20;;;;;;;6.20;68.34;101029.94;6155817;23;20002;-87
2022/04/12 03:12:28;;;;;;;9.35;6.40;;;;;;;6.17;68.52;101030.03;6155599;23;20025;-81
2022/04/12 03:14:54;;;;;;;9.55;6.45;;;;;;;5.87;68.76;100980.84;6156192;23;20010;-81
2022/04/12 03:17:20;;;;;;;9.50;6.68;;;;;;;6.07;68.92;101015.09;6155934;23;20060;-80
2022/04/12 03:19:46;;;;;;;10.82;6.75;;;;;;;5.67;68.59;100952.63;6155562;23;20029;-80
2022/04/12 03:22:11;;;;;;;13.85;6.65;;;;;;;6.05;68.62;101015.16;6155402;23;20428;-80
2022/04/12 03:24:37;;;;;;;11.95;6.95;;;;;;;6.06;69.11;101016.00;6155659;23;20080;-81
2022/04/12 03:27:02;;;;;;;11.02;6.65;;;;;;;5.90;68.94;100996.16;6155559;23;20001;-84
2022/04/12 03:29:28;;;;;;;11.18;6.35;;;;;;;5.91;68.82;100979.88;6155706;23;20013;-81
2022/04/12 03:31:54;;;;;;;12.57;6.65;;;;;;;6.01;69.98;100996.53;6155971;23;20005;-82
2022/04/12 03:34:19;;;;;;;11.23;7.10;;;;;;;6.03;69.05;101004.16;6155185;23;20045;-85
2022/04/12 03:36:46;;;;;;;12.07;6.38;;;;;;;5.89;68.40;100976.47;6155496;23;20008;-81
2022/04/12 03:39:17;;;;;;;11.32;7.05;;;;;;;6.06;68.70;101004.00;6155533;23;20037;-81
2022/04/12 03:41:48;;;;;;;12.70;6.72;;;;;;;5.82;69.17;100967.41;6155451;23;20012;-85
2022/04/12 03:44:15;;;;;;;10.52;6.50;;;;;;;5.98;69.02;101001.75;6155257;23;20040;-83
2022/04/12 03:46:41;;;;;;;10.63;6.55;;;;;;;5.74;69.44;100972.00;6128619;23;20406;-81
2022/04/12 03:49:06;;;;;;;10.07;6.57;;;;;;;5.57;69.29;100948.78;6155003;23;20016;-80
2022/04/12 03:51:32;;;;;;;11.30;6.82;;;;;;;5.79;70.32;100992.28;6155387;23;20005;-78
2022/04/12 03:53:58;;;;;;;10.85;6.70;;;;;;;5.70;70.54;100984.09;6155721;23;20001;-79
2022/04/12 03:56:23;;;;;;;10.68;6.88;;;;;;;5.63;70.47;100979.28;6155019;23;20006;-79
2022/04/12 03:58:48;;;;;;;11.65;7.03;;;;;;;5.37;71.17;100940.16;6155248;23;20006;-81
2022/04/12 04:01:14;;;;;;;11.98;6.63;;;;;;;5.70;71.61;100990.94;6155380;23;20001;-83
2022/04/12 04:03:39;;;;;;;10.63;7.10;;;;;;;5.66;70.52;100972.28;6129095;23;20420;-81
2022/04/12 04:06:05;;;;;;;11.80;7.40;;;;;;;5.74;70.45;100977.94;6155530;23;20088;-81
2022/04/12 04:08:38;;;;;;;9.70;6.90;;;;;;;5.79;70.38;100985.44;6155347;23;20013;-81
2022/04/12 04:11:03;;;;;;;11.20;6.78;;;;;;;5.85;70.61;100990.31;6129091;23;20470;-80
2022/04/12 04:13:35;;;;;;;11.32;7.28;;;;;;;5.61;70.29;100933.22;6155511;23;20013;-80
2022/04/12 04:16:01;;;;;;;11.50;6.40;;;;;;;6.00;70.71;100984.63;6155601;23;20092;-80
2022/04/12 04:18:27;;;;;;;12.80;7.03;;;;;;;6.09;70.40;100987.66;6129336;23;20005;-80
2022/04/12 04:20:52;;;;;;;10.90;6.90;;;;;;;5.96;69.67;100954.84;6155285;23;20005;-80
2022/04/12 04:23:17;;;;;;;11.50;7.03;;;;;;;6.19;70.43;100994.91;6155311;23;20001;-80
2022/04/12 04:25:43;;;;;;;10.05;6.78;;;;;;;5.07;69.62;100791.19;6154460;23;20005;-80
2022/04/12 04:28:11;;;;;;;11.10;7.22;;;;;;;6.26;69.94;100977.53;6155105;23;20016;-80
2022/04/12 04:30:44;;;;;;;11.10;6.85;;;;;;;6.41;69.59;100999.97;6155372;23;20413;-80
2022/04/12 04:33:10;;;;;;;11.50;6.90;;;;;;;6.17;69.39;100950.56;6155186;23;20005;-83
2022/04/12 04:35:41;;;;;;;10.02;6.70;;;;;;;6.28;69.62;100963.75;6155320;23;20013;-80
2022/04/12 04:38:15;;;;;;;14.93;7.07;;;;;;;6.40;69.15;100989.78;6128999;23;20013;-81
2022/04/12 04:40:41;;;;;;;12.80;7.13;;;;;;;6.18;69.21;100959.91;6155030;23;20033;-81
2022/04/12 04:43:08;;;;;;;13.50;7.35;;;;;;;5.79;69.43;100900.88;6155229;23;20001;-86
2022/04/12 04:45:34;;;;;;;9.23;6.70;;;;;;;6.13;69.45;100948.19;6155303;23;20085;-87
2022/04/12 04:48:09;;;;;;;12.27;6.82;;;;;;;5.83;69.63;100899.88;6155008;23;20009;-81
2022/04/12 04:50:34;;;;;;;12.07;7.93;;;;;;;6.37;69.37;100998.44;6154258;23;20387;-81
2022/04/12 04:53:02;;;;;;;11.65;7.47;;;;;;;5.52;69.57;100867.00;6155378;23;20037;-88
2022/04/12 04:55:28;;;;;;;12.45;7.47;;;;;;;5.92;69.79;100945.66;6155003;23;20006;-84
2022/04/12 04:57:59;;;;;;;13.27;7.53;;;;;;;5.76;69.84;100918.94;6155262;23;20028;-80
2022/04/12 05:00:25;;;;;;;;;;;;;;;6.40;68.91;101023.13;6156441;23;20001;-81
2022/04/12 05:02:54;;;;;;;12.32;7.60;;;;;;;6.18;70.05;100987.28;6156531;23;19936;-81
2022/04/12 05:05:21;;;;;;;12.50;7.45;;;;;;;6.31;70.15;100998.72;6156898;23;20020;-80
2022/04/12 05:07:50;;;;;;;17.10;8.48;;;;;;;6.51;70.32;101032.03;6157059;23;20327;-81
2022/04/12 05:10:18;;;;;;;13.60;8.25;;;;;;;6.57;70.20;101038.63;6156821;23;20064;-81
2022/04/12 05:12:44;;;;;;;12.70;7.65;;;;;;;5.70;69.92;100893.56;6156509;23;20010;-81
2022/04/12 05:15:10;;;;;;;12.95;7.65;;;;;;;6.39;70.62;100983.84;6156100;23;20072;-81
2022/04/12 05:17:35;;;;;;;16.13;7.72;;;;;;;6.79;70.66;101025.72;6156881;23;20012;-81
2022/04/12 05:20:01;;;;;;;13.15;7.35;;;;;;;6.87;69.65;101018.47;6129396;23;20438;-88
2022/04/12 05:22:27;;;;;;;15.70;8.57;;;;;;;6.72;69.74;100989.22;6156767;23;20013;-81
2022/04/12 05:24:55;;;;;;;15.55;8.20;;;;;;;7.01;69.74;101026.41;6156934;23;20085;-81
2022/04/12 05:27:21;;;;;;;12.70;7.57;;;;;;;7.08;69.05;101021.81;6157028;23;20008;-81
2022/04/12 05:29:47;;;;;;;12.73;8.27;;;;;;;6.95;68.45;100992.47;6157079;23;20084;-81
2022/04/12 05:32:13;;;;;;;12.75;7.88;;;;;;;7.19;68.12;101014.47;6156748;23;20028;-80
2022/04/12 05:34:42;;;;;;;13.90;7.90;;;;;;;7.24;68.30;101017.66;6130090;23;20428;-81
2022/04/12 05:37:08;;;;;;;14.00;8.10;;;;;;;7.22;68.28;101003.22;6156951;23;20036;-81
2022/04/12 05:39:34;;;;;;;13.45;7.78;;;;;;;7.23;68.03;100998.03;6156227;23;20009;-80
2022/04/12 05:42:00;;;;;;;11.55;8.20;;;;;;;7.11;67.68;100971.16;6157005;23;20076;-83
2022/04/12 05:44:32;;;;;;;11.50;7.47;;;;;;;7.34;67.87;101010.34;6156902;23;20337;-80
2022/04/12 05:46:57;;;;;;;13.05;8.70;;;;;;;7.31;68.35;101008.78;6157072;23;20005;-80
2022/04/12 05:49:23;;;;;;;15.32;8.93;;;;;;;7.08;68.23;100975.59;6156259;23;20416;-80
2022/04/12 05:51:48;;;;;;;13.55;7.85;;;;;;;7.15;68.78;100997.53;6154688;23;20009;-80
2022/04/12 05:54:16;;;;;;;11.70;8.40;;;;;;;7.24;68.84;101014.25;6155370;23;20002;-79
2022/04/12 06:00:20;;;;;;;12.00;7.60;;;;;;;7.30;68.23;101027.66;6157319;23;20510;-79
2022/04/12 06:03:03;;;;;;;19.55;8.85;;;;;;;7.44;67.89;101029.56;6066220;23;20318;-79
2022/04/12 06:09:37;;;;;;;;;;;;;;;;;;;;;
2022/04/12 06:15:23;;;;;;;13.00;7.85;;;;;;;9.91;59.09;100825.84;6197435;23;20021;-78
2022/04/12 06:17:54;;;;;;;13.60;7.72;;;;;;;10.51;57.49;100928.06;6216178;23;20008;-79
2022/04/12 06:23:49;;;;;;;12.05;7.25;;;;;;;12.43;57.28;101013.13;6156822;23;19920;-78
2022/04/12 06:28:50;;;;;;;12.75;7.32;;;;;;;13.49;47.56;100839.63;6153014;23;20033;-81
2022/04/12 06:31:32;;;;;;;12.98;7.93;;;;;;;14.01;48.21;100820.06;6156255;23;20023;-79
2022/04/12 06:34:04;;;;;;;12.48;7.05;;;;;;;14.63;45.62;100823.88;6119891;23;20005;-80
2022/04/12 06:39:00;;;;;;;11.20;7.47;;;;;;;14.70;43.58;100848.44;6159323;22;20329;-81
2022/04/12 06:41:28;;;;;;;12.38;7.65;;;;;;;15.19;43.73;100902.53;6156272;23;20036;-81
2022/04/12 06:44:00;;;;;;;12.40;7.50;;;;;;;15.24;43.58;100833.69;6156102;23;20001;-81
2022/04/12 06:46:35;;;;;;;12.57;7.80;;;;;;;16.21;42.92;100941.84;6156197;23;20028;-82
2022/04/12 06:49:13;;;;;;;12.90;7.40;;;;;;;15.99;43.55;100908.97;6155985;23;20012;-81
2022/04/12 06:51:53;;;;;;;12.25;7.65;;;;;;;16.34;41.47;100900.78;6156004;23;20002;-82
2022/04/12 06:54:28;;;;;;;12.80;8.47;;;;;;;16.40;41.53;100837.69;6175570;22;20013;-82
2022/04/12 06:56:53;;;;;;;14.57;7.55;;;;;;;17.00;39.05;100828.03;6186103;23;20016;-87
2022/04/12 06:59:24;;;;;;;12.45;7.30;;;;;;;18.06;38.67;100931.50;6186006;23;20008;-81
2022/04/12 07:01:49;;;;;;;12.38;7.10;;;;;;;17.80;37.49;100836.41;6185768;23;20510;-82
2022/04/12 07:04:32;;;;;;;11.15;7.13;;;;;;;18.61;39.19;100931.53;6094321;23;20011;-81
2022/04/12 07:07:31;;;;;;;13.15;7.35;;;;;;;18.83;37.65;100993.13;6094424;23;20077;-82
2022/04/12 07:10:16;;;;;;;11.93;7.95;;;;;;;17.24;40.86;100947.66;6070593;23;20007;-81
2022/04/12 07:12:43;;;;;;;12.73;7.70;;;;;;;15.53;41.53;100878.13;6095043;23;20016;-81
2022/04/12 07:15:21;;;;;;;11.20;7.35;;;;;;;14.14;44.02;100827.72;6095233;23;20433;-82
2022/04/12 07:18:14;;;;;;;11.52;7.85;;;;;;;13.43;45.79;100827.09;6094385;23;20448;-80
2022/04/12 07:20:40;;;;;;;14.07;8.48;;;;;;;13.16;47.55;100875.78;6094567;23;20134;-82
2022/04/12 07:23:05;;;;;;;14.88;8.95;;;;;;;13.59;48.53;101008.41;6094319;23;20007;-83
2022/04/12 07:25:30;;;;;;;14.85;8.60;;;;;;;13.34;49.02;101005.91;6094614;23;20013;-82
2022/04/12 07:37:51;;;;;;;12.88;8.50;;;;;;;11.86;52.69;100829.75;6036553;23;20356;-83
2022/04/12 07:43:57;;;;;;;14.43;8.75;;;;;;;13.05;52.01;100995.00;6091708;23;20369;-84
2022/04/12 07:46:23;;;;;;;35.15;9.60;;;;;;;12.07;52.85;100820.50;6094179;23;20003;-85
2022/04/12 07:48:51;;;;;;;14.88;8.60;;;;;;;12.36;51.91;100857.31;6094194;23;20014;-82
2022/04/12 07:51:16;;;;;;;13.02;8.30;;;;;;;12.15;52.18;100818.22;6094403;23;20013;-83
2022/04/12 07:53:42;;;;;;;13.00;7.88;;;;;;;12.68;51.86;100873.19;6093842;23;20131;-80
2022/04/12 07:56:17;;;;;;;12.98;6.45;;;;;;;13.51;54.24;100973.56;6094378;23;20006;-82
2022/04/12 08:01:38;;;;;;;10.20;7.05;;;;;;;13.34;54.19;100863.25;6181481;22;20029;-84
2022/04/12 08:04:12;;;;;;;13.48;5.80;;;;;;;14.41;55.45;100992.78;6185238;23;20009;-82
2022/04/12 08:06:38;;;;;;;12.85;7.15;;;;;;;13.70;51.85;100852.75;6184966;23;20084;-82
2022/04/12 08:09:16;;;;;;;12.00;6.97;;;;;;;13.89;51.65;100877.31;6158450;23;20045;-80
2022/04/12 08:11:45;;;;;;;10.57;6.50;;;;;;;13.76;51.75;100841.06;6158444;23;20008;-82
2022/04/12 08:14:16;;;;;;;13.35;7.38;;;;;;;14.34;51.61;100930.06;6185062;23;20008;-80
2022/04/12 08:16:54;;;;;;;12.60;6.07;;;;;;;14.36;51.68;100930.81;6185141;23;20446;-78
2022/04/12 08:19:29;;;;;;;11.50;6.28;;;;;;;13.97;51.15;100880.97;6185368;23;20009;-81
2022/04/12 08:22:08;;;;;;;10.15;6.38;;;;;;;13.67;51.39;100823.59;6158668;23;20001;-81
2022/04/12 08:24:36;;;;;;;11.43;6.68;;;;;;;14.28;50.59;100922.78;6184858;23;20005;-76
2022/04/12 08:27:48;;;;;;;10.98;5.95;;;;;;;14.48;51.26;100942.06;6184340;23;20084;-78
2022/04/12 08:30:49;;;;;;;11.00;6.43;;;;;;;14.60;50.30;100941.91;6158748;23;20009;-78
2022/04/12 08:33:14;;;;;;;9.18;5.90;;;;;;;15.01;49.63;100983.81;6184962;23;20080;-79
2022/04/12 08:35:52;;;;;;;10.80;5.90;;;;;;;15.17;50.31;100997.25;6184624;23;20142;-78
2022/04/12 08:38:17;;;;;;;12.02;5.68;;;;;;;15.20;49.23;100981.41;6184990;23;20012;-79
2022/04/12 08:40:45;;;;;;;8.30;4.82;;;;;;;14.92;50.33;100931.56;6185240;23;20380;-80
2022/04/12 08:43:15;;;;;;;8.95;4.78;;;;;;;15.35;49.03;101001.00;6184904;23;20001;-79
2022/04/12 08:45:42;;;;;;;9.85;4.20;;;;;;;15.07;49.64;100928.72;6184957;23;20001;-82
2022/04/12 08:48:08;;;;;;;8.32;4.15;;;;;;;15.65;49.91;100984.72;6184572;23;20001;-80
2022/04/12 08:50:34;;;;;;;10.77;4.72;;;;;;;15.62;49.50;100979.72;6184772;23;20056;-82
2022/04/12 08:53:00;;;;;;;10.55;4.35;;;;;;;15.62;51.41;100938.06;6184748;23;20004;-81
2022/04/12 08:55:26;;;;;;;11.18;4.10;;;;;;;15.85;50.09;100958.81;6184608;23;20009;-83
2022/04/12 08:57:51;;;;;;;8.07;3.72;;;;;;;15.64;49.97;100925.78;6185550;23;20020;-81
2022/04/12 09:00:17;;;;;;;8.23;4.63;;;;;;;15.61;48.96;100931.22;6184814;23;20243;-82
2022/04/12 09:02:52;;;;;;;7.65;3.78;;;;;;;15.69;51.27;100931.41;6185165;23;20414;-82
2022/04/12 09:05:18;;;;;;;8.45;4.22;;;;;;;15.73;49.73;100929.38;6158325;23;20331;-81
2022/04/12 09:07:45;;;;;;;10.48;4.13;;;;;;;15.74;50.80;100934.47;6158524;23;20005;-82
2022/04/12 09:10:10;;;;;;;9.82;5.13;;;;;;;15.84;48.59;100949.34;6184661;23;20296;-82
2022/04/12 09:12:36;;;;;;;9.02;4.28;;;;;;;15.65;48.06;100931.81;6185022;23;20001;-81
2022/04/12 09:15:02;;;;;;;8.88;4.38;;;;;;;15.76;48.78;100950.78;6185015;23;20008;-80
2022/04/12 09:17:30;;;;;;;8.90;4.50;;;;;;;15.81;48.23;100960.00;6158601;23;20012;-80
2022/04/12 09:19:55;;;;;;;9.55;4.28;;;;;;;15.61;48.95;100918.22;6184508;23;20076;-80
2022/04/12 09:22:21;;;;;;;11.52;4.70;;;;;;;15.84;47.63;100954.56;6184836;23;20033;-85
2022/04/12 09:24:48;;;;;;;8.20;4.75;;;;;;;15.88;48.20;100950.72;6157637;23;20032;-82
2022/04/12 09:27:18;;;;;;;9.73;5.18;;;;;;;15.70;48.66;100903.59;6184641;23;20438;-81
2022/04/12 09:29:48;;;;;;;7.72;5.20;;;;;;;15.71;47.88;100903.47;6185573;23;20004;-81
2022/04/12 09:32:15;;;;;;;7.15;4.55;;;;;;;15.82;47.29;100913.00;6185007;23;20008;-83
2022/04/12 09:34:44;;;;;;;9.15;4.35;;;;;;;15.92;47.97;100920.84;6185185;23;20024;-82
2022/04/12 09:37:19;;;;;;;9.23;4.93;;;;;;;15.76;48.36;100875.28;6185020;23;20005;-81
2022/04/12 09:39:58;;;;;;;7.57;4.80;;;;;;;16.13;47.74;100926.06;6157857;23;20344;-82
2022/04/12 09:42:51;;;;;;;8.85;4.40;;;;;;;16.20;48.52;100928.00;6184565;23;20379;-80
2022/04/12 09:45:27;;;;;;;7.57;4.47;;;;;;;16.17;48.61;100899.59;6184856;23;20013;-79
2022/04/12 09:47:57;;;;;;;10.65;4.70;;;;;;;16.36;47.81;100932.75;6185779;23;20423;-79
2022/04/12 09:50:25;;;;;;;8.50;4.25;;;;;;;16.15;46.54;100900.69;6159541;23;20059;-80
2022/04/12 09:52:58;;;;;;;10.10;4.60;;;;;;;15.97;46.82;100869.22;6186487;23;20001;-80
2022/04/12 09:55:43;;;;;;;10.20;4.68;;;;;;;16.43;47.68;100933.06;6186306;23;20024;-80
2022/04/12 09:58:11;;;;;;;9.80;4.72;;;;;;;16.41;48.05;100916.69;6186676;23;20071;-79
2022/04/12 10:00:39;;;;;;;10.20;4.72;;;;;;;16.49;46.80;100922.91;6186160;23;20008;-81
2022/04/12 10:03:15;;;;;;;8.15;4.22;;;;;;;16.65;47.55;100930.22;6186038;23;20439;-80
2022/04/12 10:05:43;;;;;;;6.63;4.43;;;;;;;16.52;46.79;100909.63;6186096;23;20016;-79
2022/04/12 10:08:14;;;;;;;8.10;4.38;;;;;;;16.50;47.11;100902.88;6186460;23;20419;-79
2022/04/12 10:10:44;;;;;;;10.20;5.07;;;;;;;16.73;46.20;100914.78;6186224;23;20036;-78
2022/04/12 10:13:10;;;;;;;7.97;4.60;;;;;;;16.92;46.91;100920.03;6186752;23;20084;-81
2022/04/12 10:16:00;;;;;;;11.50;5.55;;;;;;;17.02;47.22;100922.66;6186191;23;20009;-82
2022/04/12 10:18:35;;;;;;;12.50;5.40;;;;;;;16.64;46.76;100855.59;6160094;23;20329;-82
2022/04/12 10:21:11;;;;;;;9.23;5.05;;;;;;;16.06;47.21;100753.81;6159830;23;20009;-82
2022/04/12 10:24:20;;;;;;;8.98;4.90;;;;;;;17.05;47.33;100898.88;6186124;23;20080;-82
2022/04/12 10:27:05;;;;;;;9.15;5.13;;;;;;;16.39;46.67;100744.00;6186199;23;20063;-82
2022/04/12 10:29:37;;;;;;;7.88;4.63;;;;;;;17.25;46.02;100828.44;6186083;23;20005;-82
2022/04/12 10:32:03;;;;;;;;;;;;;;;17.82;45.70;100886.75;6186766;23;20052;-83
2022/04/12 10:35:04;;;;;;;11.10;4.78;;;;;;;17.64;46.81;100837.00;6185824;23;19912;-82
2022/04/12 10:38:14;;;;;;;8.75;4.50;;;;;;;17.09;45.82;100725.44;6013540;23;20011;-82
2022/04/12 10:41:12;;;;;;;8.93;4.60;;;;;;;18.06;45.09;100889.69;6035850;23;20011;-83
2022/04/12 10:43:39;;;;;;;9.45;4.78;;;;;;;17.38;45.09;100772.34;6037728;23;20011;-81
2022/04/12 10:46:14;;;;;;;11.70;5.55;;;;;;;18.16;45.17;100887.84;6037385;23;20517;-80
2022/04/12 10:49:30;;;;;;;15.25;5.65;;;;;;;17.35;45.57;100758.75;6013429;23;20073;-85
2022/04/12 10:52:13;;;;;;;8.18;5.50;;;;;;;18.22;44.98;100881.22;6012966;23;20008;-83
2022/04/12 10:54:51;;;;;;;9.80;5.15;;;;;;;18.02;44.98;100825.63;6036790;23;20038;-81
2022/04/12 10:57:24;;;;;;;10.55;5.18;;;;;;;18.25;43.45;100810.34;6036981;23;20015;-80
2022/04/12 10:59:59;;;;;;;10.40;5.00;;;;;;;18.88;43.48;100863.53;6037482;23;20054;-79
2022/04/12 11:02:30;;;;;;;10.93;5.18;;;;;;;18.87;43.35;100830.44;6037086;23;20023;-79
2022/04/12 11:04:56;;;;;;;8.43;4.10;;;;;;;19.10;41.93;100853.56;6037320;23;20071;-81
2022/04/12 11:07:29;;;;;;;8.82;4.30;;;;;;;18.87;41.58;100827.00;6037259;23;20011;-83
2022/04/12 11:10:06;;;;;;;7.60;4.18;;;;;;;19.04;41.76;100851.53;6037172;23;20094;-83
2022/04/12 11:12:42;;;;;;;8.93;4.40;;;;;;;18.94;42.05;100846.38;6175194;23;20412;-84
2022/04/12 11:15:21;;;;;;;7.00;4.35;;;;;;;19.13;43.15;100876.81;6185347;23;20107;-83
2022/04/12 11:17:49;;;;;;;9.02;4.30;;;;;;;18.95;41.97;100816.63;6185696;23;20086;-82
2022/04/12 11:20:22;;;;;;;8.57;4.57;;;;;;;19.28;41.25;100861.41;6185594;23;20024;-83
2022/04/12 11:22:58;;;;;;;10.18;4.53;;;;;;;19.66;42.15;100879.34;6185985;23;20009;-83
2022/04/12 11:25:26;;;;;;;11.10;4.63;;;;;;;19.83;41.15;100876.84;6185776;23;20016;-84
2022/04/12 11:27:59;;;;;;;11.93;4.43;;;;;;;19.84;40.68;100866.19;6185473;23;20036;-82
2022/04/12 11:30:25;;;;;;;9.38;4.10;;;;;;;19.57;40.48;100835.78;6185255;23;20004;-83
2022/04/12 11:32:55;;;;;;;10.82;4.40;;;;;;;19.55;41.00;100849.94;6185721;23;20001;-81
2022/04/12 11:35:22;;;;;;;9.50;4.25;;;;;;;19.29;39.86;100845.53;6185661;23;20005;-81
2022/04/12 11:37:48;;;;;;;8.88;4.35;;;;;;;19.32;40.38;100852.25;6185189;23;20009;-80
2022/04/12 11:40:13;;;;;;;10.15;4.72;;;;;;;19.45;40.90;100844.81;6185274;23;20080;-83
2022/04/12 11:42:39;;;;;;;11.23;4.15;;;;;;;19.61;40.35;100825.78;6185148;23;20001;-84
2022/04/12 11:45:05;;;;;;;9.43;3.88;;;;;;;19.93;40.69;100835.63;6185045;23;20004;-82
2022/04/12 11:47:33;;;;;;;10.15;4.55;;;;;;;19.96;39.50;100809.09;6185288;23;20379;-83
2022/04/12 11:50:18;;;;;;;7.95;4.20;;;;;;;20.05;39.73;100823.88;6185188;23;20040;-83
2022/04/12 11:52:45;;;;;;;11.93;4.40;;;;;;;20.18;38.45;100855.72;6185291;23;20001;-82
2022/04/12 11:55:36;;;;;;;8.40;4.35;;;;;;;20.15;39.57;100863.88;6185290;23;20072;-83
2022/04/12 11:58:03;;;;;;;10.88;4.05;;;;;;;20.00;39.48;100865.47;6185090;23;20032;-83
2022/04/12 12:00:30;;;;;;;9.80;4.47;;;;;;;19.91;39.56;100861.16;6185077;23;20005;-81
2022/04/12 12:02:55;;;;;;;9.20;3.97;;;;;;;19.79;39.93;100851.94;6169067;23;20431;-84
2022/04/12 12:05:21;;;;;;;9.50;4.45;;;;;;;19.52;39.68;100809.19;6155748;23;20093;-81
2022/04/12 12:07:47;;;;;;;8.27;4.45;;;;;;;19.81;39.82;100858.66;6155160;23;20013;-82
2022/04/12 12:10:14;;;;;;;8.70;4.30;;;;;;;19.92;40.29;100871.50;6154882;23;20012;-81
2022/04/12 12:12:45;;;;;;;9.35;4.90;;;;;;;20.01;39.94;100867.94;6155181;23;20001;-81
2022/04/12 12:15:34;;;;;;;9.25;4.50;;;;;;;19.46;39.91;100765.25;6155224;23;20002;-81
2022/04/12 12:18:09;;;;;;;11.90;4.82;;;;;;;20.18;41.12;100873.25;6008147;23;20042;-83
2022/04/12 12:20:36;;;;;;;11.10;4.93;;;;;;;19.98;40.06;100826.31;6008223;23;20100;-82
2022/04/12 12:23:04;;;;;;;9.95;4.82;;;;;;;20.25;40.90;100859.34;6008323;23;20035;-81
2022/04/12 12:25:48;;;;;;;13.63;4.97;;;;;;;20.34;42.05;100844.44;6008597;23;20086;-83
2022/04/12 12:28:17;;;;;;;12.15;5.50;;;;;;;20.32;39.26;100844.63;6007677;23;20008;-83
2022/04/12 12:30:48;;;;;;;8.65;4.93;;;;;;;20.34;39.83;100839.19;6008193;23;20370;-84
2022/04/12 12:33:14;;;;;;;9.88;4.93;;;;;;;20.45;39.66;100843.34;5984406;23;20004;-81
2022/04/12 12:35:45;;;;;;;10.00;4.80;;;;;;;20.54;40.76;100843.22;6008019;23;20028;-81
2022/04/12 12:38:12;;;;;;;;;;;;;;;20.69;39.99;100838.19;6008527;23;20128;-82
2022/04/12 12:40:38;;;;;;;10.85;5.05;;;;;;;20.71;38.92;100838.00;6007885;23;20346;-83
2022/04/12 12:43:06;;;;;;;10.25;5.13;;;;;;;20.80;39.72;100831.78;6007982;23;20040;-82
2022/04/12 12:45:35;;;;;;;10.98;5.32;;;;;;;20.84;38.36;100828.69;6008177;23;20339;-82
2022/04/12 12:48:05;;;;;;;10.55;5.50;;;;;;;20.76;37.07;100826.06;6007946;23;20098;-83
2022/04/12 12:50:31;;;;;;;7.97;4.57;;;;;;;20.83;38.97;100836.69;6008181;23;20015;-81
2022/04/12 12:52:59;;;;;;;10.50;5.43;;;;;;;20.86;38.24;100831.97;6008080;23;20008;-81
2022/04/12 12:55:27;;;;;;;9.73;5.57;;;;;;;20.77;38.93;100816.38;6107872;23;20081;-80
2022/04/12 12:57:57;;;;;;;10.38;4.78;;;;;;;20.88;37.51;100830.00;6155122;23;20037;-84
2022/04/12 13:00:29;;;;;;;9.43;5.63;;;;;;;20.87;38.95;100827.53;6129121;23;20025;-83
2022/04/12 13:03:06;;;;;;;9.05;5.20;;;;;;;20.80;38.56;100805.53;6170158;23;20025;-83
2022/04/12 13:05:38;;;;;;;11.07;5.00;;;;;;;20.85;38.66;100800.63;6183615;23;20040;-81
2022/04/12 13:11:14;;;;;;;9.88;5.53;;;;;;;20.24;37.98;100699.53;6036194;23;20120;-84